^^
Datos históricos de la estación: Murcia-Puente Tocinos
Diario Informe para Enero 13, 2018 Unidades:  Métrico    Inglés   Ambas
Diario Semanal Mensual Anual Configurable
  Máximo: Mínimo: Media:
Temperatura: 13.9 °C 9.0 °C 12.1 °C
Punto de rocio: 6.9 °C 1.2 °C 5.3 °C
Humedad: 79% 51% 63%
Velocidad viento: 10.3km/h 0.0km/h 5.5km/h
Racha viento: 18.5km/h - -
Viento- - SSE
Presión: 1019.9 hPa 1016.1 hPa -
Precipitación: 0.0 mm    
Historical Graphs
 
 
Tabla de datos para Enero 13, 2018
Hora Temperatura Punto de rocio Presión Viento Velocidad viento Racha viento Humedad Intensidad lluvia(por hora) Nubes
12:29 10.8 °C 1.3 °C 1019.9 hPa West 5.8 km/h 5.8 km/h 52% 0.0 mm BKN
12:30 10.8 °C 1.3 °C 1019.9 hPa West 5.8 km/h 5.8 km/h 52% 0.0 mm BKN
12:31 10.8 °C 1.3 °C 1019.9 hPa West 5.8 km/h 5.8 km/h 52% 0.0 mm
12:32 10.9 °C 1.4 °C 1019.2 hPa West 5.8 km/h 5.8 km/h 52% 0.0 mm
12:33 10.9 °C 1.4 °C 1019.2 hPa North 5.8 km/h 5.8 km/h 52% 0.0 mm
12:35 10.9 °C 1.4 °C 1019.2 hPa NNE 3.2 km/h 5.6 km/h 52% 0.0 mm
12:36 10.9 °C 1.2 °C 1019.2 hPa NNE 3.2 km/h 5.6 km/h 51% 0.0 mm
12:39 10.9 °C 1.2 °C 1019.2 hPa NE 3.2 km/h 7.4 km/h 51% 0.0 mm
12:46 10.8 °C 1.3 °C 1019.2 hPa NE 4.7 km/h 9.3 km/h 52% 0.0 mm
13:13 11.3 °C 2.3 °C 1018.5 hPa NNW 5.8 km/h 7.4 km/h 54% 0.0 mm
13:28 11.7 °C 2.9 °C 1018.2 hPa ENE 6.4 km/h 14.8 km/h 55% 0.0 mm
13:51 12.2 °C 4.2 °C 1017.2 hPa NNE 6.9 km/h 7.4 km/h 58% 0.0 mm
14:09 12.4 °C 4.3 °C 1016.8 hPa NNE 6.4 km/h 10.0 km/h 58% 0.0 mm
14:18 12.6 °C 4.8 °C 1016.5 hPa North 6.9 km/h 11.1 km/h 59% 0.0 mm
14:24 12.7 °C 4.9 °C 1016.5 hPa NE 5.0 km/h 7.4 km/h 59% 0.0 mm
14:52 13.1 °C 5.5 °C 1016.5 hPa NW 4.7 km/h 9.3 km/h 60% 0.0 mm
14:57 13.2 °C 5.8 °C 1016.5 hPa NW 5.0 km/h 7.4 km/h 61% 0.0 mm
15:04 13.2 °C 5.8 °C 1016.8 hPa NNE 5.0 km/h 5.6 km/h 61% 0.0 mm
15:24 13.4 °C 5.8 °C 1016.1 hPa SSE 5.8 km/h 7.4 km/h 60% 0.0 mm
15:30 13.5 °C 5.9 °C 1016.1 hPa SE 5.8 km/h 10.0 km/h 60% 0.0 mm
15:38 13.8 °C 5.9 °C 1016.5 hPa SSW 5.8 km/h 13.0 km/h 59% 0.0 mm
15:44 13.9 °C 6.0 °C 1016.5 hPa South 10.3 km/h 18.5 km/h 59% 0.0 mm
15:51 13.9 °C 6.3 °C 1016.5 hPa SE 10.3 km/h 13.0 km/h 60% 0.0 mm
15:57 13.9 °C 6.5 °C 1016.5 hPa South 9.5 km/h 16.7 km/h 61% 0.0 mm
16:06 13.8 °C 6.4 °C 1016.1 hPa South 10.3 km/h 13.0 km/h 61% 0.0 mm
16:13 13.8 °C 6.2 °C 1016.1 hPa South 10.3 km/h 16.7 km/h 60% 0.0 mm
16:33 13.8 °C 6.4 °C 1016.1 hPa SSE 8.7 km/h 13.0 km/h 61% 0.0 mm
17:10 13.9 °C 6.3 °C 1016.5 hPa SSW 7.6 km/h 13.0 km/h 60% 0.0 mm
17:23 13.7 °C 6.3 °C 1016.5 hPa South 7.6 km/h 11.1 km/h 61% 0.0 mm SCT
17:29 13.7 °C 6.6 °C 1016.5 hPa SSW 7.6 km/h 9.3 km/h 62% 0.0 mm SCT
17:35 13.7 °C 6.6 °C 1016.8 hPa South 7.6 km/h 11.1 km/h 62% 0.0 mm SCT
17:58 13.2 °C 6.6 °C 1016.8 hPa South 6.9 km/h 10.0 km/h 64% 0.0 mm SCT
18:16 12.9 °C 6.7 °C 1016.8 hPa South 6.9 km/h 9.3 km/h 66% 0.0 mm -RA
18:21 12.9 °C 6.7 °C 1016.8 hPa SSW 6.9 km/h 7.4 km/h 66% 0.0 mm -RA
18:34 12.8 °C 6.8 °C 1016.8 hPa South 6.4 km/h 9.3 km/h 67% 0.0 mm -RA
18:39 12.7 °C 6.7 °C 1016.8 hPa SSE 6.4 km/h 9.3 km/h 67% 0.0 mm -RA
18:45 12.7 °C 6.7 °C 1016.8 hPa South 6.4 km/h 7.4 km/h 67% 0.0 mm FEW
18:51 12.7 °C 6.7 °C 1016.8 hPa South 6.4 km/h 7.4 km/h 67% 0.0 mm FEW
18:57 12.7 °C 6.7 °C 1016.8 hPa South 6.4 km/h 11.1 km/h 67% 0.0 mm FEW
19:10 12.7 °C 6.7 °C 1016.8 hPa SE 6.9 km/h 7.4 km/h 67% 0.0 mm -RA
19:15 12.6 °C 6.6 °C 1016.8 hPa SE 5.8 km/h 7.4 km/h 67% 0.0 mm SCT
19:33 12.4 °C 6.7 °C 1016.8 hPa SE 2.9 km/h 5.6 km/h 68% 0.0 mm SCT
19:44 12.3 °C 6.8 °C 1016.8 hPa East 4.7 km/h 5.6 km/h 69% 0.0 mm SCT
19:57 12.2 °C 6.7 °C 1016.5 hPa East 2.3 km/h 3.7 km/h 69% 0.0 mm SCT
20:05 12.2 °C 6.9 °C 1016.8 hPa East 2.3 km/h 3.7 km/h 70% 0.0 mm SCT
20:23 12.1 °C 6.8 °C 1016.8 hPa Calm   3.7 km/h 70% 0.0 mm SCT
20:31 11.9 °C 6.6 °C 1016.8 hPa East 2.9 km/h 5.8 km/h 70% 0.0 mm SCT
20:39 11.7 °C 6.6 °C 1016.8 hPa WSW 3.2 km/h 3.9 km/h 71% 0.0 mm SCT
21:03 11.7 °C 6.6 °C 1016.8 hPa WSW 2.9 km/h 4.7 km/h 71% 0.0 mm SCT
21:27 11.1 °C 6.4 °C 1016.8 hPa SE 3.2 km/h 3.7 km/h 73% 0.0 mm FEW
21:38 10.8 °C 6.2 °C 1016.8 hPa Calm   3.7 km/h 73% 0.0 mm FEW
21:45 10.7 °C 6.1 °C 1016.8 hPa SE 2.3 km/h 5.0 km/h 73% 0.0 mm FEW
21:52 10.7 °C 6.1 °C 1017.2 hPa SW 2.3 km/h 5.6 km/h 73% 0.0 mm FEW
22:22 10.3 °C 5.7 °C 1017.2 hPa SSE 5.8 km/h 8.4 km/h 73% 0.0 mm BKN
22:45 9.8 °C 5.8 °C 1017.2 hPa SSE 6.9 km/h 7.4 km/h 76% 0.0 mm BKN
23:12 9.2 °C 5.4 °C 1017.2 hPa South 2.3 km/h 3.7 km/h 77% 0.0 mm BKN
23:19 9.0 °C 5.4 °C 1017.2 hPa South 2.3 km/h 5.6 km/h 78% 0.0 mm OVC
23:25 9.0 °C 5.6 °C 1017.2 hPa South 2.9 km/h 5.8 km/h 79% 0.0 mm OVC
Murcia-Puente Tocinos, España
Compliments of Weather Underground - 1.5 mb

La estación de MeteoMurcia.com, publica sus datos en los siguientes proyectos:

Meteoclimatic www.awekas.at

W3Counter
Web Analytics